createdAt,value
2022-08-05T00:00:46.420Z,94786.63
2022-08-05T00:02:52.242Z,94774.66
2022-08-05T00:04:57.538Z,94776.56
2022-08-05T00:06:59.392Z,94777.50
2022-08-05T00:09:01.871Z,94775.41
2022-08-05T00:11:20.301Z,94773.34
2022-08-05T00:13:38.251Z,94774.72
2022-08-05T00:15:54.947Z,94771.47
2022-08-05T00:17:59.167Z,94777.94
2022-08-05T00:20:05.032Z,94771.34
2022-08-05T00:22:11.419Z,94771.09
2022-08-05T00:24:16.225Z,94767.03
2022-08-05T00:26:22.498Z,94769.00
2022-08-05T00:28:29.681Z,94759.47
2022-08-05T00:30:32.251Z,94765.56
2022-08-05T00:32:34.564Z,94770.66
2022-08-05T00:34:54.291Z,94761.84
2022-08-05T00:37:11.883Z,94755.69
2022-08-05T00:39:15.884Z,94755.69
2022-08-05T00:41:51.739Z,94753.22
2022-08-05T00:43:54.167Z,94758.81
2022-08-05T00:45:55.975Z,94752.53
2022-08-05T00:48:05.792Z,94754.50
2022-08-05T00:50:08.969Z,94759.50
2022-08-05T00:52:11.170Z,94753.22
2022-08-05T00:54:13.965Z,94761.47
2022-08-05T00:56:17.354Z,94753.22
2022-08-05T00:58:27.430Z,94758.00
2022-08-05T01:00:30.863Z,94752.56
2022-08-05T01:02:33.588Z,94759.66
2022-08-05T01:04:35.958Z,94764.38
2022-08-05T01:06:37.879Z,94757.28
2022-08-05T01:08:44.471Z,94758.28
2022-08-05T01:10:54.649Z,94749.28
2022-08-05T01:13:13.392Z,94750.69
2022-08-05T01:15:36.178Z,94756.59
2022-08-05T01:17:44.298Z,94764.25
2022-08-05T01:20:00.878Z,94763.63
2022-08-05T01:22:42.367Z,94756.09
2022-08-05T01:25:10.840Z,94763.03
2022-08-05T01:27:37.732Z,94763.22
2022-08-05T01:29:59.363Z,94760.91
2022-08-05T01:32:04.370Z,94755.31
2022-08-05T01:35:00.493Z,94768.91
2022-08-05T01:37:51.863Z,94766.28
2022-08-05T01:39:59.086Z,94761.41
2022-08-05T01:42:02.870Z,94760.59
2022-08-05T01:44:09.926Z,94760.59
2022-08-05T01:46:16.419Z,94757.44
2022-08-05T01:48:39.375Z,94753.13
2022-08-05T01:50:51.155Z,94763.53
2022-08-05T01:52:54.638Z,94772.88
2022-08-05T01:54:58.373Z,94773.94
2022-08-05T01:58:12.152Z,94767.53
2022-08-05T01:59:31.961Z,94773.47
2022-08-05T02:01:40.143Z,94770.22
2022-08-05T02:03:45.730Z,94766.97
2022-08-05T02:05:48.338Z,94768.34
2022-08-05T02:07:59.784Z,94771.38
2022-08-05T02:10:05.363Z,94766.63
2022-08-05T02:12:19.675Z,94760.50
2022-08-05T02:14:32.113Z,94763.53
2022-08-05T02:16:47.055Z,94767.34
2022-08-05T02:19:12.326Z,94763.44
2022-08-05T02:21:25.477Z,94765.84
2022-08-05T02:23:33.778Z,94761.81
2022-08-05T02:25:49.479Z,94757.28
2022-08-05T02:27:59.399Z,94764.47
2022-08-05T02:30:03.040Z,94761.22
2022-08-05T02:32:08.780Z,94770.84
2022-08-05T02:34:13.894Z,94755.19
2022-08-05T02:36:18.376Z,94764.16
2022-08-05T02:38:21.191Z,94760.69
2022-08-05T02:40:29.628Z,94762.97
2022-08-05T02:42:36.129Z,94758.09
2022-08-05T02:44:38.702Z,94764.94
2022-08-05T02:46:43.874Z,94764.94
2022-08-05T02:48:56.580Z,94764.19
2022-08-05T02:51:01.505Z,94757.94
2022-08-05T02:53:03.932Z,94753.63
2022-08-05T02:55:10.718Z,94764.28
2022-08-05T02:58:10.669Z,94752.59
2022-08-05T02:59:50.436Z,94761.63
2022-08-05T03:01:58.455Z,94755.56
2022-08-05T03:04:08.884Z,94756.16
2022-08-05T03:06:54.599Z,94757.19
2022-08-05T03:08:38.546Z,94755.25
2022-08-05T03:11:53.096Z,94758.44
2022-08-05T03:13:16.565Z,94754.84
2022-08-05T03:15:21.188Z,94760.94
2022-08-05T03:17:25.937Z,94759.31
2022-08-05T03:19:33.968Z,94762.81
2022-08-05T03:21:41.723Z,94766.06
2022-08-05T03:23:51.636Z,94762.47
2022-08-05T03:26:30.199Z,94762.72
2022-08-05T03:28:18.660Z,94762.72
2022-08-05T03:30:28.685Z,94760.94
2022-08-05T03:32:36.772Z,94755.91
2022-08-05T03:34:39.016Z,94761.09
2022-08-05T03:36:41.810Z,94757.63
2022-08-05T03:38:43.773Z,94761.59
2022-08-05T03:40:57.655Z,94765.91
2022-08-05T03:43:01.525Z,94763.84
2022-08-05T03:45:23.607Z,94766.25
2022-08-05T03:47:30.277Z,94769.22
2022-08-05T03:49:51.858Z,94766.28
2022-08-05T03:52:50.387Z,94765.59
2022-08-05T03:55:52.674Z,94765.09
2022-08-05T03:57:02.663Z,94769.75
2022-08-05T03:59:47.273Z,94759.47
2022-08-05T04:01:58.894Z,94764.94
2022-08-05T04:04:09.707Z,94765.47
2022-08-05T04:06:12.684Z,94766.13
2022-08-05T04:08:30.194Z,94760.41
2022-08-05T04:10:38.451Z,94759.31
2022-08-05T04:14:41.558Z,94766.84
2022-08-05T04:16:45.719Z,94772.47
2022-08-05T04:18:47.825Z,94770.13
2022-08-05T04:20:59.669Z,94769.56
2022-08-05T04:23:01.971Z,94762.19
2022-08-05T04:25:03.943Z,94762.28
2022-08-05T04:27:05.999Z,94763.22
2022-08-05T04:29:09.128Z,94761.06
2022-08-05T04:31:11.261Z,94755.75
2022-08-05T04:33:14.630Z,94756.25
2022-08-05T04:35:17.400Z,94757.81
2022-08-05T04:37:19.949Z,94762.84
2022-08-05T04:39:24.827Z,94762.53
2022-08-05T04:41:37.889Z,94760.03
2022-08-05T04:43:48.125Z,94760.13
2022-08-05T04:45:55.741Z,94759.25
2022-08-05T04:48:18.724Z,94755.63
2022-08-05T04:50:37.114Z,94751.09
2022-08-05T04:52:51.946Z,94762.88
2022-08-05T04:54:53.769Z,94753.69
2022-08-05T04:56:59.810Z,94758.13
2022-08-05T04:59:01.697Z,94759.63
2022-08-05T05:02:06.075Z,94757.81
2022-08-05T05:03:45.629Z,94758.91
2022-08-05T05:06:40.636Z,94755.88
2022-08-05T05:08:14.407Z,94760.94
2022-08-05T05:10:34.024Z,94764.72
2022-08-05T05:12:36.819Z,94753.16
2022-08-05T05:14:49.205Z,94758.75
2022-08-05T05:16:52.251Z,94748.00
2022-08-05T05:19:17.818Z,94758.34
2022-08-05T05:21:18.756Z,94750.69
2022-08-05T05:23:20.527Z,94748.03
2022-08-05T05:25:32.586Z,94754.66
2022-08-05T05:27:44.231Z,94753.38
2022-08-05T05:30:04.415Z,94750.69
2022-08-05T05:32:07.170Z,94747.91
2022-08-05T05:34:15.547Z,94748.69
2022-08-05T05:36:18.522Z,94747.91
2022-08-05T05:38:22.935Z,94749.72
2022-08-05T05:40:32.029Z,94748.03
2022-08-05T05:42:34.024Z,94747.22
2022-08-05T05:44:42.997Z,94750.69
2022-08-05T05:46:47.750Z,94744.41
2022-08-05T05:48:49.674Z,94754.53
2022-08-05T05:50:52.724Z,94754.41
2022-08-05T05:52:54.552Z,94746.59
2022-08-05T05:55:00.058Z,94751.63
2022-08-05T05:57:03.794Z,94751.72
2022-08-05T05:59:15.485Z,94756.13
2022-08-05T06:01:17.588Z,94752.88
2022-08-05T06:03:40.039Z,94763.34
2022-08-05T06:05:53.920Z,94757.53
2022-08-05T06:08:01.282Z,94749.66
2022-08-05T06:10:10.052Z,94763.25
2022-08-05T06:12:12.400Z,94762.75
2022-08-05T06:14:17.794Z,94753.00
2022-08-05T06:16:30.644Z,94757.28
2022-08-05T06:18:36.549Z,94766.72
2022-08-05T06:20:41.113Z,94764.50
2022-08-05T06:22:49.496Z,94760.91
2022-08-05T06:24:52.338Z,94764.72
2022-08-05T06:26:54.599Z,94752.03
2022-08-05T06:29:00.219Z,94758.94
2022-08-05T06:31:11.283Z,94760.47
2022-08-05T06:33:33.129Z,94761.34
2022-08-05T06:36:05.774Z,94755.50
2022-08-05T06:38:10.012Z,94760.56
2022-08-05T06:40:14.039Z,94758.66
2022-08-05T06:42:20.649Z,94757.16
2022-08-05T06:44:22.357Z,94757.16
2022-08-05T06:46:29.685Z,94755.69
2022-08-05T06:48:53.154Z,94753.97
2022-08-05T06:51:00.053Z,94754.72
2022-08-05T06:53:03.774Z,94752.84
2022-08-05T06:55:13.526Z,94752.97
2022-08-05T06:57:57.520Z,94750.84
2022-08-05T06:59:42.208Z,94748.22
2022-08-05T07:01:52.930Z,94748.09
2022-08-05T07:03:54.929Z,94750.94
2022-08-05T07:05:57.041Z,94744.81
2022-08-05T07:07:58.975Z,94749.19
2022-08-05T07:10:03.466Z,94753.59
2022-08-05T07:12:05.727Z,94745.78
2022-08-05T07:14:30.105Z,94757.66
2022-08-05T07:17:57.208Z,94755.94
2022-08-05T07:19:16.101Z,94755.75
2022-08-05T07:21:39.957Z,94751.19
2022-08-05T07:23:58.095Z,94754.00
2022-08-05T07:26:04.329Z,94751.81
2022-08-05T07:28:09.617Z,94754.09
2022-08-05T07:30:23.947Z,94753.75
2022-08-05T07:32:30.175Z,94754.00
2022-08-05T07:34:33.002Z,94754.16
2022-08-05T07:36:34.758Z,94751.56
2022-08-05T07:38:43.195Z,94748.19
2022-08-05T07:40:46.015Z,94751.53
2022-08-05T07:42:57.692Z,94746.47
2022-08-05T07:45:00.572Z,94747.28
2022-08-05T07:47:06.224Z,94740.38
2022-08-05T07:49:10.179Z,94746.94
2022-08-05T07:51:23.384Z,94750.19
2022-08-05T07:53:37.025Z,94744.28
2022-08-05T07:56:05.628Z,94747.66
2022-08-05T07:58:17.760Z,94744.00
2022-08-05T08:00:36.426Z,94745.69
2022-08-05T08:03:15.186Z,94741.72
2022-08-05T08:05:00.540Z,94744.16
2022-08-05T08:07:05.513Z,94744.22
2022-08-05T08:09:09.667Z,94745.06
2022-08-05T08:11:13.687Z,94736.75
2022-08-05T08:13:21.989Z,94733.56
2022-08-05T08:16:33.657Z,94741.41
2022-08-05T08:17:53.379Z,94742.00
2022-08-05T08:20:21.789Z,94739.03
2022-08-05T08:22:17.006Z,94739.03
2022-08-05T08:24:18.774Z,94742.19
2022-08-05T08:26:26.604Z,94734.94
2022-08-05T08:28:36.831Z,94741.13
2022-08-05T08:30:47.460Z,94740.28
2022-08-05T08:32:49.866Z,94736.00
2022-08-05T08:34:52.845Z,94729.50
2022-08-05T08:37:03.375Z,94736.78
2022-08-05T08:39:15.708Z,94729.59
2022-08-05T08:41:18.570Z,94733.97
2022-08-05T08:45:23.563Z,94729.44
2022-08-05T08:45:44.118Z,94727.00
2022-08-05T08:48:07.113Z,94732.41
2022-08-05T08:50:31.178Z,94734.56
2022-08-05T08:52:36.151Z,94728.66
2022-08-05T08:54:42.164Z,94733.75
2022-08-05T08:56:47.812Z,94724.81
2022-08-05T08:58:51.986Z,94726.94
2022-08-05T09:00:54.611Z,94729.63
2022-08-05T09:02:57.555Z,94723.69
2022-08-05T09:05:17.509Z,94712.88
2022-08-05T09:07:28.901Z,94719.91
2022-08-05T09:09:44.546Z,94720.75
2022-08-05T09:11:50.770Z,94715.94
2022-08-05T09:14:10.328Z,94721.91
2022-08-05T09:16:17.245Z,94713.25
2022-08-05T09:18:19.075Z,94699.78
2022-08-05T09:20:36.330Z,94699.47
2022-08-05T09:23:19.506Z,94694.25
2022-08-05T09:25:24.591Z,94693.44
2022-08-05T09:28:05.175Z,94684.47
2022-08-05T09:30:06.800Z,94680.94
2022-08-05T09:32:41.483Z,94688.66
2022-08-05T09:34:55.061Z,94687.97
2022-08-05T09:36:59.784Z,94694.63
2022-08-05T09:39:18.161Z,94682.72
2022-08-05T09:41:24.048Z,94682.06
2022-08-05T09:43:41.903Z,94669.66
2022-08-05T09:46:07.570Z,94677.44
2022-08-05T09:48:26.829Z,94677.28
2022-08-05T09:50:44.545Z,94674.44
2022-08-05T09:52:52.900Z,94671.19
2022-08-05T09:55:58.216Z,94669.38
2022-08-05T09:57:43.211Z,94663.94
2022-08-05T09:59:48.233Z,94668.09
2022-08-05T10:01:57.881Z,94665.53
2022-08-05T10:04:10.629Z,94662.94
2022-08-05T10:06:14.663Z,94663.19
2022-08-05T10:08:37.261Z,94661.69
2022-08-05T10:10:54.242Z,94658.91
2022-08-05T10:12:59.302Z,94653.28
2022-08-05T10:15:34.368Z,94658.38
2022-08-05T10:17:37.354Z,94645.94
2022-08-05T10:20:04.361Z,94654.59
2022-08-05T10:22:05.097Z,94647.91
2022-08-05T10:24:13.638Z,94648.63
2022-08-05T10:26:16.036Z,94641.13
2022-08-05T10:28:29.258Z,94644.41
2022-08-05T10:31:19.891Z,94642.88
2022-08-05T10:33:01.920Z,94636.97
2022-08-05T10:35:05.106Z,94639.47
2022-08-05T10:37:07.050Z,94638.22
2022-08-05T10:39:25.217Z,94633.53
2022-08-05T10:41:47.384Z,94639.44
2022-08-05T10:43:55.208Z,94636.38
2022-08-05T10:46:06.309Z,94634.44
2022-08-05T10:48:39.597Z,94628.72
2022-08-05T10:51:06.210Z,94630.66
2022-08-05T10:53:45.671Z,94628.97
2022-08-05T10:56:21.488Z,94630.28
2022-08-05T10:58:47.809Z,94619.78
2022-08-05T11:00:55.338Z,94626.91
2022-08-05T11:03:24.501Z,94626.09
2022-08-05T11:05:29.329Z,94619.25
2022-08-05T11:08:02.636Z,94609.47
2022-08-05T11:10:04.078Z,94609.34
2022-08-05T11:12:50.512Z,94613.19
2022-08-05T11:16:00.210Z,94613.97
2022-08-05T11:18:00.250Z,94612.38
2022-08-05T11:20:16.695Z,94606.84
2022-08-05T11:22:42.269Z,94607.41
2022-08-05T11:24:50.694Z,94609.03
2022-08-05T11:27:28.966Z,94603.13
2022-08-05T11:29:59.863Z,94610.09
2022-08-05T11:32:28.538Z,94600.84
2022-08-05T11:34:39.013Z,94607.53
2022-08-05T11:36:47.421Z,94588.88
2022-08-05T11:38:57.760Z,94587.31
2022-08-05T11:41:12.692Z,94583.66
2022-08-05T11:43:21.631Z,94582.44
2022-08-05T11:46:23.439Z,94579.81
2022-08-05T11:48:11.504Z,94591.06
2022-08-05T11:50:14.348Z,94582.31
2022-08-05T11:52:29.323Z,94587.09
2022-08-05T11:54:38.130Z,94590.03
2022-08-05T11:56:45.146Z,94587.06
2022-08-05T11:58:53.321Z,94585.47
2022-08-05T12:01:04.608Z,94577.03
2022-08-05T12:03:24.110Z,94576.28
2022-08-05T12:05:36.354Z,94579.09
2022-08-05T12:08:08.520Z,94580.25
2022-08-05T12:10:09.611Z,94571.97
2022-08-05T12:12:13.371Z,94574.22
2022-08-05T12:14:15.446Z,94578.88
2022-08-05T12:16:20.081Z,94577.81
2022-08-05T12:18:33.199Z,94571.81
2022-08-05T12:20:38.735Z,94572.19
2022-08-05T12:22:40.667Z,94581.31
2022-08-05T12:24:50.587Z,94573.78
2022-08-05T12:26:54.009Z,94569.97
2022-08-05T12:28:56.007Z,94568.56
2022-08-05T12:31:01.944Z,94570.56
2022-08-05T12:33:07.146Z,94559.56
2022-08-05T12:35:37.259Z,94557.38
2022-08-05T12:37:42.680Z,94556.97
2022-08-05T12:39:48.625Z,94552.78
2022-08-05T12:41:59.353Z,94555.91
2022-08-05T12:44:05.344Z,94550.03
2022-08-05T12:46:26.435Z,94558.88
2022-08-05T12:48:39.009Z,94544.09
2022-08-05T12:50:41.814Z,94543.34
2022-08-05T12:52:56.880Z,94551.19
2022-08-05T12:54:59.704Z,94544.53
2022-08-05T12:57:04.670Z,94534.56
2022-08-05T12:59:20.736Z,94535.19
2022-08-05T13:02:03.861Z,94539.72
2022-08-05T13:03:51.636Z,94538.75
2022-08-05T13:05:53.963Z,94529.22
2022-08-05T13:08:00.623Z,94542.25
2022-08-05T13:10:04.760Z,94533.75
2022-08-05T13:12:13.189Z,94533.94
2022-08-05T13:14:36.355Z,94530.75
2022-08-05T13:16:56.480Z,94518.34
2022-08-05T13:18:59.139Z,94517.88
2022-08-05T13:21:00.881Z,94521.94
2022-08-05T13:23:02.802Z,94518.66
2022-08-05T13:25:19.551Z,94515.72
2022-08-05T13:27:38.253Z,94524.13
2022-08-05T13:30:35.220Z,94521.44
2022-08-05T13:32:04.549Z,94515.09
2022-08-05T13:34:25.160Z,94528.00
2022-08-05T13:36:46.468Z,94508.72
2022-08-05T13:38:51.852Z,94504.66
2022-08-05T13:40:53.999Z,94505.75
2022-08-05T13:42:55.899Z,94502.13
2022-08-05T13:44:57.769Z,94500.78
2022-08-05T13:47:02.349Z,94508.72
2022-08-05T13:49:11.998Z,94519.34
2022-08-05T13:51:14.154Z,94510.00
2022-08-05T13:53:16.278Z,94509.94
2022-08-05T13:55:41.880Z,94509.06
2022-08-05T13:57:49.033Z,94508.66
2022-08-05T13:59:57.157Z,94508.06
2022-08-05T14:02:02.195Z,94500.69
2022-08-05T14:04:26.436Z,94501.16
2022-08-05T14:06:29.105Z,94500.28
2022-08-05T14:08:32.642Z,94489.25
2022-08-05T14:10:35.556Z,94488.94
2022-08-05T14:12:42.884Z,94488.03
2022-08-05T14:14:51.474Z,94493.75
2022-08-05T14:16:55.325Z,94490.75
2022-08-05T14:19:04.428Z,94491.50
2022-08-05T14:22:07.047Z,94494.81
2022-08-05T14:23:32.893Z,94488.88
2022-08-05T14:25:43.567Z,94486.38
2022-08-05T14:27:49.068Z,94492.41
2022-08-05T14:29:52.036Z,94485.41
2022-08-05T14:32:03.917Z,94493.28
2022-08-05T14:34:14.843Z,94484.75
2022-08-05T14:36:20.615Z,94476.88
2022-08-05T14:38:31.833Z,94476.88
2022-08-05T14:40:35.818Z,94473.66
2022-08-05T14:42:38.018Z,94469.44
2022-08-05T14:44:40.192Z,94469.56
2022-08-05T14:46:43.326Z,94476.00
2022-08-05T14:48:49.860Z,94467.16
2022-08-05T14:50:51.806Z,94468.75
2022-08-05T14:52:57.669Z,94464.72
2022-08-05T14:55:01.162Z,94459.47
2022-08-05T14:57:05.399Z,94461.72
2022-08-05T14:59:11.622Z,94457.97
2022-08-05T15:01:16.088Z,94463.19
2022-08-05T15:03:19.210Z,94461.63
2022-08-05T15:05:30.091Z,94457.31
2022-08-05T15:08:07.707Z,94454.00
2022-08-05T15:10:10.572Z,94453.81
2022-08-05T15:12:16.815Z,94449.59
2022-08-05T15:14:33.631Z,94452.19
2022-08-05T15:16:37.905Z,94443.75
2022-08-05T15:18:42.904Z,94446.72
2022-08-05T15:20:49.160Z,94453.38
2022-08-05T15:22:52.183Z,94440.34
2022-08-05T15:24:59.287Z,94449.38
2022-08-05T15:27:01.193Z,94446.50
2022-08-05T15:29:05.470Z,94445.78
2022-08-05T15:31:08.309Z,94449.41
2022-08-05T15:33:10.754Z,94454.19
2022-08-05T15:35:13.571Z,94438.50
2022-08-05T15:38:08.722Z,94447.94
2022-08-05T15:40:58.700Z,94440.63
2022-08-05T15:42:00.729Z,94448.09
2022-08-05T15:44:06.001Z,94440.41
2022-08-05T15:46:09.078Z,94437.94
2022-08-05T15:48:14.518Z,94437.50
2022-08-05T15:50:16.932Z,94436.19
2022-08-05T15:52:29.432Z,94431.97
2022-08-05T15:54:41.633Z,94440.47
2022-08-05T15:56:44.920Z,94431.97
2022-08-05T15:58:48.402Z,94438.78
2022-08-05T16:00:57.101Z,94430.69
2022-08-05T16:03:12.370Z,94437.13
2022-08-05T16:05:16.762Z,94442.69
2022-08-05T16:07:21.446Z,94439.09
2022-08-05T16:09:25.644Z,94434.97
2022-08-05T16:11:42.938Z,94436.31
2022-08-05T16:13:45.789Z,94434.91
2022-08-05T16:15:47.658Z,94436.97
2022-08-05T16:17:57.687Z,94437.09
2022-08-05T16:20:05.658Z,94442.59
2022-08-05T16:22:23.287Z,94440.75
2022-08-05T16:24:40.671Z,94435.47
2022-08-05T16:26:57.242Z,94434.69
2022-08-05T16:28:59.055Z,94438.81
2022-08-05T16:31:00.892Z,94443.88
2022-08-05T16:33:03.203Z,94442.34
2022-08-05T16:35:05.521Z,94442.56
2022-08-05T16:38:02.565Z,94441.41
2022-08-05T16:40:05.350Z,94445.66
2022-08-05T16:42:15.252Z,94447.63
2022-08-05T16:44:16.438Z,94437.75
2022-08-05T16:46:24.228Z,94434.69
2022-08-05T16:48:33.203Z,94447.53
2022-08-05T16:50:36.102Z,94448.34
2022-08-05T16:52:37.922Z,94448.94
2022-08-05T16:54:47.428Z,94452.53
2022-08-05T16:56:51.899Z,94457.50
2022-08-05T16:58:54.114Z,94453.03
2022-08-05T17:00:56.277Z,94451.78
2022-08-05T17:02:58.257Z,94457.72
2022-08-05T17:05:00.283Z,94449.38
2022-08-05T17:07:03.623Z,94447.34
2022-08-05T17:09:13.216Z,94447.34
2022-08-05T17:11:16.879Z,94450.88
2022-08-05T17:13:21.597Z,94453.06
2022-08-05T17:15:48.824Z,94456.06
2022-08-05T17:17:55.479Z,94453.47
2022-08-05T17:20:04.585Z,94449.03
2022-08-05T17:22:07.720Z,94452.06
2022-08-05T17:24:30.343Z,94456.78
2022-08-05T17:26:33.268Z,94457.22
2022-08-05T17:28:36.292Z,94464.25
2022-08-05T17:30:50.724Z,94463.75
2022-08-05T17:32:54.172Z,94463.50
2022-08-05T17:34:55.838Z,94466.25
2022-08-05T17:37:00.801Z,94469.22
2022-08-05T17:39:03.030Z,94469.00
2022-08-05T17:41:07.557Z,94468.50
2022-08-05T17:43:47.274Z,94465.53
2022-08-05T17:45:46.901Z,94475.25
2022-08-05T17:47:54.079Z,94464.53
2022-08-05T17:50:04.234Z,94474.22
2022-08-05T17:52:12.339Z,94472.31
2022-08-05T17:54:14.335Z,94480.16
2022-08-05T17:56:28.429Z,94476.38
2022-08-05T17:58:32.376Z,94475.59
2022-08-05T18:00:34.686Z,94479.34
2022-08-05T18:02:37.317Z,94477.72
2022-08-05T18:04:51.175Z,94476.94
2022-08-05T18:07:00.253Z,94479.88
2022-08-05T18:09:03.671Z,94488.56
2022-08-05T18:11:05.657Z,94485.59
2022-08-05T18:13:12.451Z,94488.03
2022-08-05T18:15:15.055Z,94495.91
2022-08-05T18:17:59.194Z,94486.22
2022-08-05T18:19:39.233Z,94484.38
2022-08-05T18:22:07.638Z,94489.50
2022-08-05T18:24:08.643Z,94490.56
2022-08-05T18:26:14.861Z,94501.13
2022-08-05T18:28:22.043Z,94499.81
2022-08-05T18:30:30.466Z,94503.56
2022-08-05T18:32:32.401Z,94505.72
2022-08-05T18:34:41.311Z,94505.50
2022-08-05T18:36:44.920Z,94502.81
2022-08-05T18:38:48.736Z,94503.09
2022-08-05T18:41:57.470Z,94504.72
2022-08-05T18:43:16.436Z,94509.03
2022-08-05T18:45:19.128Z,94509.84
2022-08-05T18:47:22.550Z,94510.13
2022-08-05T18:49:57.984Z,94515.25
2022-08-05T18:52:33.086Z,94513.94
2022-08-05T18:54:35.282Z,94518.28
2022-08-05T18:56:37.024Z,94504.00
2022-08-05T18:58:40.130Z,94522.06
2022-08-05T19:00:44.973Z,94520.44
2022-08-05T19:02:50.483Z,94517.19
2022-08-05T19:05:02.800Z,94515.59
2022-08-05T19:07:16.151Z,94515.09
2022-08-05T19:09:18.137Z,94524.50
2022-08-05T19:11:27.985Z,94524.78
2022-08-05T19:13:30.776Z,94515.66
2022-08-05T19:15:59.109Z,94517.28
2022-08-05T19:18:10.059Z,94521.31
2022-08-05T19:20:14.908Z,94525.06
2022-08-05T19:22:27.424Z,94521.59
2022-08-05T19:24:34.527Z,94514.56
2022-08-05T19:26:44.084Z,94507.59
2022-08-05T19:28:56.850Z,94514.28
2022-08-05T19:30:59.238Z,94508.66
2022-08-05T19:33:05.046Z,94512.16
2022-08-05T19:35:10.980Z,94516.47
2022-08-05T19:37:12.803Z,94518.91
2022-08-05T19:39:17.152Z,94522.13
2022-08-05T19:41:22.130Z,94518.06
2022-08-05T19:44:05.296Z,94517.56
2022-08-05T19:46:04.667Z,94514.03
2022-08-05T19:48:18.653Z,94524.81
2022-08-05T19:50:21.866Z,94519.69
2022-08-05T19:52:31.581Z,94510.00
2022-08-05T19:54:35.244Z,94519.97
2022-08-05T19:56:38.746Z,94520.22
2022-08-05T19:58:53.910Z,94518.88
2022-08-05T20:00:56.684Z,94523.72
2022-08-05T20:02:59.746Z,94522.13
2022-08-05T20:05:02.483Z,94514.56
2022-08-05T20:07:10.226Z,94514.81
2022-08-05T20:09:15.402Z,94515.38
2022-08-05T20:11:20.156Z,94515.63
2022-08-05T20:13:30.341Z,94516.69
2022-08-05T20:15:51.687Z,94510.22
2022-08-05T20:18:01.354Z,94515.59
2022-08-05T20:20:09.532Z,94503.75
2022-08-05T20:22:12.986Z,94513.44
2022-08-05T20:24:16.108Z,94509.91
2022-08-05T20:26:19.813Z,94513.91
2022-08-05T20:28:21.581Z,94515.13
2022-08-05T20:30:26.443Z,94510.69
2022-08-05T20:32:28.452Z,94516.00
2022-08-05T20:34:30.560Z,94515.53
2022-08-05T20:36:32.852Z,94506.50
2022-08-05T20:38:35.694Z,94509.88
2022-08-05T20:40:37.697Z,94515.97
2022-08-05T20:42:44.906Z,94517.25
2022-08-05T20:44:46.858Z,94510.09
2022-08-05T20:46:49.021Z,94507.16
2022-08-05T20:48:51.168Z,94505.56
2022-08-05T20:50:53.144Z,94504.88
2022-08-05T20:52:55.049Z,94506.41
2022-08-05T20:55:15.988Z,94506.66
2022-08-05T20:57:42.686Z,94503.75
2022-08-05T21:00:10.619Z,94504.31
2022-08-05T21:02:02.786Z,94509.16
2022-08-05T21:04:07.359Z,94501.44
2022-08-05T21:06:28.534Z,94506.28
2022-08-05T21:08:41.315Z,94498.31
2022-08-05T21:10:48.625Z,94497.84
2022-08-05T21:12:58.158Z,94497.03
2022-08-05T21:15:11.232Z,94505.63
2022-08-05T21:17:14.307Z,94505.81
2022-08-05T21:19:15.997Z,94500.63
2022-08-05T21:21:17.906Z,94502.19
2022-08-05T21:23:26.151Z,94503.22
2022-08-05T21:25:33.510Z,94499.75
2022-08-05T21:27:38.967Z,94500.69
2022-08-05T21:29:41.581Z,94502.94
2022-08-05T21:31:51.022Z,94503.56
2022-08-05T21:33:53.352Z,94501.16
2022-08-05T21:35:55.809Z,94507.59
2022-08-05T21:38:00.586Z,94505.13
2022-08-05T21:40:05.734Z,94509.47
2022-08-05T21:42:40.854Z,94502.63
2022-08-05T21:44:32.758Z,94514.06
2022-08-05T21:46:34.948Z,94508.00
2022-08-05T21:48:36.880Z,94511.84
2022-08-05T21:50:53.125Z,94507.41
2022-08-05T21:53:04.738Z,94512.56
2022-08-05T21:55:42.704Z,94505.06
2022-08-05T21:57:42.613Z,94515.84
2022-08-05T22:00:02.920Z,94511.03
2022-08-05T22:02:06.848Z,94507.28
2022-08-05T22:04:13.330Z,94505.13
2022-08-05T22:06:16.208Z,94505.94
2022-08-05T22:08:35.077Z,94499.88
2022-08-05T22:10:36.936Z,94502.63
2022-08-05T22:12:40.343Z,94502.63
2022-08-05T22:14:46.629Z,94503.63
2022-08-05T22:16:51.301Z,94503.84
2022-08-05T22:18:58.697Z,94506.44
2022-08-05T22:21:03.939Z,94506.16
2022-08-05T22:24:00.926Z,94501.94
2022-08-05T22:26:09.888Z,94503.28
2022-08-05T22:28:13.284Z,94508.16
2022-08-05T22:30:15.796Z,94502.88
2022-08-05T22:32:19.036Z,94495.84
2022-08-05T22:34:28.507Z,94497.44
2022-08-05T22:36:43.099Z,94496.78
2022-08-05T22:38:48.742Z,94499.81
2022-08-05T22:40:54.940Z,94496.72
2022-08-05T22:42:58.266Z,94494.91
2022-08-05T22:45:00.128Z,94491.75
2022-08-05T22:47:05.030Z,94492.50
2022-08-05T22:49:23.394Z,94498.34
2022-08-05T22:52:05.027Z,94497.84
2022-08-05T22:53:55.523Z,94494.91
2022-08-05T22:55:59.437Z,94505.94
2022-08-05T22:58:01.333Z,94494.41
2022-08-05T23:00:08.168Z,94492.78
2022-08-05T23:02:13.820Z,94489.81
2022-08-05T23:04:18.733Z,94495.09
2022-08-05T23:06:21.535Z,94497.84
2022-08-05T23:08:28.051Z,94489.22
2022-08-05T23:10:30.051Z,94487.16
2022-08-05T23:12:33.349Z,94488.66
2022-08-05T23:14:37.108Z,94493.63
2022-08-05T23:16:57.806Z,94494.84
2022-08-05T23:19:02.498Z,94492.22
2022-08-05T23:21:04.493Z,94497.66
2022-08-05T23:23:08.278Z,94491.78
2022-08-05T23:25:11.485Z,94493.38
2022-08-05T23:27:13.556Z,94493.16
2022-08-05T23:29:17.166Z,94495.78
2022-08-05T23:31:21.290Z,94494.31
2022-08-05T23:33:26.396Z,94497.16
2022-08-05T23:35:46.289Z,94496.38
2022-08-05T23:37:48.137Z,94500.97
2022-08-05T23:39:54.348Z,94503.09
2022-08-05T23:41:57.261Z,94494.38
2022-08-05T23:44:05.230Z,94495.44
2022-08-05T23:46:20.357Z,94492.38
2022-08-05T23:48:23.723Z,94493.19
2022-08-05T23:50:28.210Z,94495.69
2022-08-05T23:52:36.119Z,94499.84
2022-08-05T23:54:39.499Z,94489.22
2022-08-05T23:56:41.843Z,94498.19
2022-08-05T23:58:44.443Z,94501.19
